sensor_id;sensor_type;location;lat;lon;timestamp;pressure;altitude;pressure_sealevel;temperature
72035;BMP280;59899;43.412;23.216;2022-07-23T00:01:31;99883.19;;;23.85
72035;BMP280;59899;43.412;23.216;2022-07-23T00:03:56;99879.94;;;23.87
72035;BMP280;59899;43.412;23.216;2022-07-23T00:06:23;99886.59;;;23.86
72035;BMP280;59899;43.412;23.216;2022-07-23T00:08:48;99883.66;;;23.84
72035;BMP280;59899;43.412;23.216;2022-07-23T00:11:14;99880.28;;;23.78
72035;BMP280;59899;43.412;23.216;2022-07-23T00:13:39;99883.25;;;23.74
72035;BMP280;59899;43.412;23.216;2022-07-23T00:16:05;99883.31;;;23.69
72035;BMP280;59899;43.412;23.216;2022-07-23T00:18:31;99877.44;;;23.65
72035;BMP280;59899;43.412;23.216;2022-07-23T00:20:57;99870.59;;;23.64
72035;BMP280;59899;43.412;23.216;2022-07-23T00:23:22;99877.00;;;23.61
72035;BMP280;59899;43.412;23.216;2022-07-23T00:25:50;99881.22;;;23.56
72035;BMP280;59899;43.412;23.216;2022-07-23T00:28:15;99884.22;;;23.52
72035;BMP280;59899;43.412;23.216;2022-07-23T00:30:40;99880.06;;;23.46
72035;BMP280;59899;43.412;23.216;2022-07-23T00:33:07;99880.66;;;23.33
72035;BMP280;59899;43.412;23.216;2022-07-23T00:35:35;99874.06;;;23.29
72035;BMP280;59899;43.412;23.216;2022-07-23T00:38:02;99879.25;;;23.27
72035;BMP280;59899;43.412;23.216;2022-07-23T00:40:29;99877.03;;;23.25
72035;BMP280;59899;43.412;23.216;2022-07-23T00:42:55;99885.16;;;23.25
72035;BMP280;59899;43.412;23.216;2022-07-23T00:45:20;99874.38;;;23.20
72035;BMP280;59899;43.412;23.216;2022-07-23T00:47:46;99878.63;;;23.15
72035;BMP280;59899;43.412;23.216;2022-07-23T00:50:12;99888.22;;;23.10
72035;BMP280;59899;43.412;23.216;2022-07-23T00:52:38;99878.69;;;23.04
72035;BMP280;59899;43.412;23.216;2022-07-23T00:55:05;99880.69;;;22.98
72035;BMP280;59899;43.412;23.216;2022-07-23T00:57:31;99880.00;;;22.92
72035;BMP280;59899;43.412;23.216;2022-07-23T00:59:57;99875.31;;;22.87
72035;BMP280;59899;43.412;23.216;2022-07-23T01:02:24;99873.16;;;22.80
72035;BMP280;59899;43.412;23.216;2022-07-23T01:04:50;99885.00;;;22.71
72035;BMP280;59899;43.412;23.216;2022-07-23T01:07:16;99881.59;;;22.71
72035;BMP280;59899;43.412;23.216;2022-07-23T01:09:44;99880.13;;;22.70
72035;BMP280;59899;43.412;23.216;2022-07-23T01:12:09;99874.47;;;22.67
72035;BMP280;59899;43.412;23.216;2022-07-23T01:14:35;99889.22;;;22.61
72035;BMP280;59899;43.412;23.216;2022-07-23T01:17:00;99883.88;;;22.55
72035;BMP280;59899;43.412;23.216;2022-07-23T01:19:26;99889.56;;;22.46
72035;BMP280;59899;43.412;23.216;2022-07-23T01:21:51;99891.03;;;22.42
72035;BMP280;59899;43.412;23.216;2022-07-23T01:24:18;99887.88;;;22.32
72035;BMP280;59899;43.412;23.216;2022-07-23T01:26:47;99887.69;;;22.25
72035;BMP280;59899;43.412;23.216;2022-07-23T01:29:14;99890.84;;;22.17
72035;BMP280;59899;43.412;23.216;2022-07-23T01:31:40;99880.56;;;22.16
72035;BMP280;59899;43.412;23.216;2022-07-23T01:34:05;99888.19;;;22.12
72035;BMP280;59899;43.412;23.216;2022-07-23T01:36:33;99887.22;;;22.04
72035;BMP280;59899;43.412;23.216;2022-07-23T01:38:58;99890.19;;;21.95
72035;BMP280;59899;43.412;23.216;2022-07-23T01:41:24;99884.78;;;21.89
72035;BMP280;59899;43.412;23.216;2022-07-23T01:43:49;99884.81;;;21.84
72035;BMP280;59899;43.412;23.216;2022-07-23T01:46:15;99887.00;;;21.85
72035;BMP280;59899;43.412;23.216;2022-07-23T01:48:40;99886.75;;;21.83
72035;BMP280;59899;43.412;23.216;2022-07-23T01:51:06;99885.53;;;21.84
72035;BMP280;59899;43.412;23.216;2022-07-23T01:53:32;99884.81;;;21.84
72035;BMP280;59899;43.412;23.216;2022-07-23T01:55:58;99884.81;;;21.78
72035;BMP280;59899;43.412;23.216;2022-07-23T01:58:25;99885.06;;;21.74
72035;BMP280;59899;43.412;23.216;2022-07-23T02:00:50;99888.50;;;21.69
72035;BMP280;59899;43.412;23.216;2022-07-23T02:03:15;99889.22;;;21.64
72035;BMP280;59899;43.412;23.216;2022-07-23T02:05:41;99887.53;;;21.56
72035;BMP280;59899;43.412;23.216;2022-07-23T02:08:07;99890.47;;;21.52
72035;BMP280;59899;43.412;23.216;2022-07-23T02:10:33;99889.25;;;21.48
72035;BMP280;59899;43.412;23.216;2022-07-23T02:12:58;99884.81;;;21.50
72035;BMP280;59899;43.412;23.216;2022-07-23T02:15:23;99890.44;;;21.47
72035;BMP280;59899;43.412;23.216;2022-07-23T02:17:49;99894.63;;;21.42
72035;BMP280;59899;43.412;23.216;2022-07-23T02:20:15;99895.59;;;21.39
72035;BMP280;59899;43.412;23.216;2022-07-23T02:22:40;99895.34;;;21.37
72035;BMP280;59899;43.412;23.216;2022-07-23T02:25:07;99902.44;;;21.34
72035;BMP280;59899;43.412;23.216;2022-07-23T02:27:33;99896.56;;;21.30
72035;BMP280;59899;43.412;23.216;2022-07-23T02:29:59;99903.47;;;21.26
72035;BMP280;59899;43.412;23.216;2022-07-23T02:32:24;99893.09;;;21.19
72035;BMP280;59899;43.412;23.216;2022-07-23T02:34:50;99901.94;;;21.14
72035;BMP280;59899;43.412;23.216;2022-07-23T02:37:16;99897.28;;;21.09
72035;BMP280;59899;43.412;23.216;2022-07-23T02:39:41;99901.91;;;21.03
72035;BMP280;59899;43.412;23.216;2022-07-23T02:42:07;99900.41;;;20.96
72035;BMP280;59899;43.412;23.216;2022-07-23T02:44:34;99908.75;;;20.92
72035;BMP280;59899;43.412;23.216;2022-07-23T02:47:00;99905.53;;;20.94
72035;BMP280;59899;43.412;23.216;2022-07-23T02:49:25;99914.13;;;20.92
72035;BMP280;59899;43.412;23.216;2022-07-23T02:51:50;99912.88;;;20.93
72035;BMP280;59899;43.412;23.216;2022-07-23T02:54:16;99907.50;;;20.88
72035;BMP280;59899;43.412;23.216;2022-07-23T02:56:41;99915.06;;;20.78
72035;BMP280;59899;43.412;23.216;2022-07-23T02:59:07;99904.97;;;20.68
72035;BMP280;59899;43.412;23.216;2022-07-23T03:01:33;99916.00;;;20.64
72035;BMP280;59899;43.412;23.216;2022-07-23T03:03:59;99917.44;;;20.60
72035;BMP280;59899;43.412;23.216;2022-07-23T03:06:24;99912.06;;;20.60
72035;BMP280;59899;43.412;23.216;2022-07-23T03:08:50;99917.44;;;20.60
72035;BMP280;59899;43.412;23.216;2022-07-23T03:11:15;99916.19;;;20.61
72035;BMP280;59899;43.412;23.216;2022-07-23T03:13:41;99913.28;;;20.59
72035;BMP280;59899;43.412;23.216;2022-07-23T03:16:06;99914.00;;;20.59
72035;BMP280;59899;43.412;23.216;2022-07-23T03:18:33;99923.31;;;20.58
72035;BMP280;59899;43.412;23.216;2022-07-23T03:20:58;99914.47;;;20.58
72035;BMP280;59899;43.412;23.216;2022-07-23T03:23:24;99923.25;;;20.53
72035;BMP280;59899;43.412;23.216;2022-07-23T03:25:49;99922.06;;;20.54
72035;BMP280;59899;43.412;23.216;2022-07-23T03:28:15;99922.06;;;20.54
72035;BMP280;59899;43.412;23.216;2022-07-23T03:30:42;99932.84;;;20.54
72035;BMP280;59899;43.412;23.216;2022-07-23T03:33:08;99933.56;;;20.54
72035;BMP280;59899;43.412;23.216;2022-07-23T03:35:33;99937.44;;;20.53
72035;BMP280;59899;43.412;23.216;2022-07-23T03:37:59;99931.81;;;20.51
72035;BMP280;59899;43.412;23.216;2022-07-23T03:40:24;99926.44;;;20.51
72035;BMP280;59899;43.412;23.216;2022-07-23T03:42:50;99941.34;;;20.52
72035;BMP280;59899;43.412;23.216;2022-07-23T03:45:15;99928.41;;;20.51
72035;BMP280;59899;43.412;23.216;2022-07-23T03:47:41;99928.44;;;20.56
72035;BMP280;59899;43.412;23.216;2022-07-23T03:50:08;99934.34;;;20.60
72035;BMP280;59899;43.412;23.216;2022-07-23T03:52:34;99928.97;;;20.66
72035;BMP280;59899;43.412;23.216;2022-07-23T03:54:59;99930.44;;;20.67
72035;BMP280;59899;43.412;23.216;2022-07-23T03:57:24;99936.34;;;20.71
72035;BMP280;59899;43.412;23.216;2022-07-23T03:59:50;99942.00;;;20.78
72035;BMP280;59899;43.412;23.216;2022-07-23T04:02:15;99939.34;;;20.84
72035;BMP280;59899;43.412;23.216;2022-07-23T04:04:41;99942.53;;;20.88
72035;BMP280;59899;43.412;23.216;2022-07-23T04:07:06;99943.28;;;20.88
72035;BMP280;59899;43.412;23.216;2022-07-23T04:09:33;99944.75;;;20.95
72035;BMP280;59899;43.412;23.216;2022-07-23T04:11:59;99936.72;;;21.01
72035;BMP280;59899;43.412;23.216;2022-07-23T04:14:24;99941.63;;;21.08
72035;BMP280;59899;43.412;23.216;2022-07-23T04:16:49;99942.63;;;21.16
72035;BMP280;59899;43.412;23.216;2022-07-23T04:19:15;99944.81;;;21.23
72035;BMP280;59899;43.412;23.216;2022-07-23T04:21:40;99946.59;;;21.26
72035;BMP280;59899;43.412;23.216;2022-07-23T04:24:06;99940.22;;;21.34
72035;BMP280;59899;43.412;23.216;2022-07-23T04:26:31;99948.81;;;21.44
72035;BMP280;59899;43.412;23.216;2022-07-23T04:28:56;99945.16;;;21.53
72035;BMP280;59899;43.412;23.216;2022-07-23T04:31:22;99955.72;;;21.62
72035;BMP280;59899;43.412;23.216;2022-07-23T04:33:47;99957.22;;;21.74
72035;BMP280;59899;43.412;23.216;2022-07-23T04:36:13;99951.31;;;21.81
72035;BMP280;59899;43.412;23.216;2022-07-23T04:38:38;99952.50;;;21.91
72035;BMP280;59899;43.412;23.216;2022-07-23T04:41:04;99947.38;;;21.99
72035;BMP280;59899;43.412;23.216;2022-07-23T04:43:29;99958.13;;;22.10
72035;BMP280;59899;43.412;23.216;2022-07-23T04:45:55;99957.91;;;22.19
72035;BMP280;59899;43.412;23.216;2022-07-23T04:48:20;99950.97;;;22.29
72035;BMP280;59899;43.412;23.216;2022-07-23T04:50:46;99963.00;;;22.39
72035;BMP280;59899;43.412;23.216;2022-07-23T04:53:11;99961.75;;;22.46
72035;BMP280;59899;43.412;23.216;2022-07-23T04:55:36;99960.97;;;22.56
72035;BMP280;59899;43.412;23.216;2022-07-23T04:58:02;99958.25;;;22.67
72035;BMP280;59899;43.412;23.216;2022-07-23T05:00:27;99970.47;;;22.80
72035;BMP280;59899;43.412;23.216;2022-07-23T05:02:53;99967.25;;;22.92
72035;BMP280;59899;43.412;23.216;2022-07-23T05:05:18;99970.63;;;23.04
72035;BMP280;59899;43.412;23.216;2022-07-23T05:07:43;99972.00;;;23.16
72035;BMP280;59899;43.412;23.216;2022-07-23T05:10:09;99973.41;;;23.28
72035;BMP280;59899;43.412;23.216;2022-07-23T05:12:34;99975.09;;;23.37
72035;BMP280;59899;43.412;23.216;2022-07-23T05:15:00;99979.19;;;23.49
72035;BMP280;59899;43.412;23.216;2022-07-23T05:17:25;99973.19;;;23.62
72035;BMP280;59899;43.412;23.216;2022-07-23T05:19:51;99974.78;;;23.76
72035;BMP280;59899;43.412;23.216;2022-07-23T05:22:16;99974.94;;;23.89
72035;BMP280;59899;43.412;23.216;2022-07-23T05:24:42;99976.50;;;24.03
72035;BMP280;59899;43.412;23.216;2022-07-23T05:27:08;99979.09;;;24.14
72035;BMP280;59899;43.412;23.216;2022-07-23T05:29:33;99983.41;;;24.28
72035;BMP280;59899;43.412;23.216;2022-07-23T05:31:59;99976.31;;;24.44
72035;BMP280;59899;43.412;23.216;2022-07-23T05:34:24;99983.75;;;24.62
72035;BMP280;59899;43.412;23.216;2022-07-23T05:36:50;99988.97;;;24.79
72035;BMP280;59899;43.412;23.216;2022-07-23T05:39:15;99988.44;;;24.99
72035;BMP280;59899;43.412;23.216;2022-07-23T05:41:41;99988.63;;;25.20
72035;BMP280;59899;43.412;23.216;2022-07-23T05:44:06;99986.66;;;25.39
72035;BMP280;59899;43.412;23.216;2022-07-23T05:46:32;99985.34;;;25.59
72035;BMP280;59899;43.412;23.216;2022-07-23T05:48:57;99988.19;;;25.79
72035;BMP280;59899;43.412;23.216;2022-07-23T05:51:24;99981.22;;;25.97
72035;BMP280;59899;43.412;23.216;2022-07-23T05:53:49;99986.53;;;26.16
72035;BMP280;59899;43.412;23.216;2022-07-23T05:56:16;99981.59;;;26.40
72035;BMP280;59899;43.412;23.216;2022-07-23T05:58:41;99975.88;;;26.65
72035;BMP280;59899;43.412;23.216;2022-07-23T06:01:07;99978.38;;;26.89
72035;BMP280;59899;43.412;23.216;2022-07-23T06:03:32;99977.53;;;27.15
72035;BMP280;59899;43.412;23.216;2022-07-23T06:05:58;99969.75;;;27.39
72035;BMP280;59899;43.412;23.216;2022-07-23T06:08:23;99975.00;;;27.66
72035;BMP280;59899;43.412;23.216;2022-07-23T06:10:49;99975.88;;;27.89
72035;BMP280;59899;43.412;23.216;2022-07-23T06:13:14;99960.28;;;27.97
72035;BMP280;59899;43.412;23.216;2022-07-23T06:15:40;99960.53;;;28.07
72035;BMP280;59899;43.412;23.216;2022-07-23T06:18:05;99961.28;;;28.15
72035;BMP280;59899;43.412;23.216;2022-07-23T06:20:31;99965.50;;;28.23
72035;BMP280;59899;43.412;23.216;2022-07-23T06:22:56;99967.56;;;28.38
72035;BMP280;59899;43.412;23.216;2022-07-23T06:25:22;99972.16;;;28.58
72035;BMP280;59899;43.412;23.216;2022-07-23T06:27:47;99965.66;;;28.84
72035;BMP280;59899;43.412;23.216;2022-07-23T06:30:13;99965.31;;;29.10
72035;BMP280;59899;43.412;23.216;2022-07-23T06:32:41;99966.38;;;29.37
72035;BMP280;59899;43.412;23.216;2022-07-23T06:35:07;99963.09;;;29.54
72035;BMP280;59899;43.412;23.216;2022-07-23T06:37:32;99960.47;;;29.79
72035;BMP280;59899;43.412;23.216;2022-07-23T06:39:57;99958.44;;;29.94
72035;BMP280;59899;43.412;23.216;2022-07-23T06:42:23;99961.41;;;30.14
72035;BMP280;59899;43.412;23.216;2022-07-23T06:44:48;99962.25;;;30.31
72035;BMP280;59899;43.412;23.216;2022-07-23T06:47:14;99947.78;;;30.46
72035;BMP280;59899;43.412;23.216;2022-07-23T06:49:39;99956.56;;;30.62
72035;BMP280;59899;43.412;23.216;2022-07-23T06:52:07;99958.75;;;30.88
72035;BMP280;59899;43.412;23.216;2022-07-23T06:54:32;99955.28;;;31.12
72035;BMP280;59899;43.412;23.216;2022-07-23T06:56:58;99953.81;;;31.28
72035;BMP280;59899;43.412;23.216;2022-07-23T06:59:23;99957.88;;;31.44
72035;BMP280;59899;43.412;23.216;2022-07-23T07:01:48;99952.84;;;31.68
72035;BMP280;59899;43.412;23.216;2022-07-23T07:04:14;99953.31;;;31.91
72035;BMP280;59899;43.412;23.216;2022-07-23T07:06:39;99965.91;;;32.03
72035;BMP280;59899;43.412;23.216;2022-07-23T07:09:05;99957.78;;;32.13
72035;BMP280;59899;43.412;23.216;2022-07-23T07:11:30;99949.47;;;32.30
72035;BMP280;59899;43.412;23.216;2022-07-23T07:13:56;99953.31;;;32.54
72035;BMP280;59899;43.412;23.216;2022-07-23T07:16:21;99945.41;;;32.67
72035;BMP280;59899;43.412;23.216;2022-07-23T07:18:46;99942.88;;;32.79
72035;BMP280;59899;43.412;23.216;2022-07-23T07:21:12;99950.97;;;33.06
72035;BMP280;59899;43.412;23.216;2022-07-23T07:23:37;99940.28;;;33.29
72035;BMP280;59899;43.412;23.216;2022-07-23T07:26:03;99945.19;;;33.50
72035;BMP280;59899;43.412;23.216;2022-07-23T07:28:28;99943.44;;;33.64
72035;BMP280;59899;43.412;23.216;2022-07-23T07:30:54;99942.41;;;33.78
72035;BMP280;59899;43.412;23.216;2022-07-23T07:33:19;99937.31;;;33.94
72035;BMP280;59899;43.412;23.216;2022-07-23T07:35:46;99943.00;;;34.17
72035;BMP280;59899;43.412;23.216;2022-07-23T07:38:11;99937.22;;;34.44
72035;BMP280;59899;43.412;23.216;2022-07-23T07:40:37;99946.94;;;34.66
72035;BMP280;59899;43.412;23.216;2022-07-23T07:43:02;99937.22;;;34.86
72035;BMP280;59899;43.412;23.216;2022-07-23T07:45:29;99936.47;;;35.07
72035;BMP280;59899;43.412;23.216;2022-07-23T07:47:54;99937.72;;;35.16
72035;BMP280;59899;43.412;23.216;2022-07-23T07:50:20;99948.06;;;35.27
72035;BMP280;59899;43.412;23.216;2022-07-23T07:52:45;99943.56;;;35.43
72035;BMP280;59899;43.412;23.216;2022-07-23T07:55:11;99937.00;;;35.48
72035;BMP280;59899;43.412;23.216;2022-07-23T07:57:37;99948.25;;;35.52
72035;BMP280;59899;43.412;23.216;2022-07-23T08:00:04;99942.78;;;35.75
72035;BMP280;59899;43.412;23.216;2022-07-23T08:02:48;99938.38;;;35.93
72035;BMP280;59899;43.412;23.216;2022-07-23T08:05:14;99935.00;;;36.06
72035;BMP280;59899;43.412;23.216;2022-07-23T08:07:40;99931.13;;;36.23
72035;BMP280;59899;43.412;23.216;2022-07-23T08:10:07;99932.47;;;36.34
72035;BMP280;59899;43.412;23.216;2022-07-23T08:12:40;99930.38;;;36.46
72035;BMP280;59899;43.412;23.216;2022-07-23T08:15:06;99928.00;;;36.52
72035;BMP280;59899;43.412;23.216;2022-07-23T08:17:32;99932.19;;;36.41
72035;BMP280;59899;43.412;23.216;2022-07-23T08:19:57;99928.31;;;36.58
72035;BMP280;59899;43.412;23.216;2022-07-23T08:22:22;99935.00;;;36.78
72035;BMP280;59899;43.412;23.216;2022-07-23T08:24:48;99913.66;;;36.92
72035;BMP280;59899;43.412;23.216;2022-07-23T08:27:13;99926.91;;;37.07
72035;BMP280;59899;43.412;23.216;2022-07-23T08:29:39;99923.09;;;37.26
72035;BMP280;59899;43.412;23.216;2022-07-23T08:32:04;99915.44;;;37.38
72035;BMP280;59899;43.412;23.216;2022-07-23T08:34:30;99911.88;;;37.49
72035;BMP280;59899;43.412;23.216;2022-07-23T08:36:55;99920.47;;;37.69
72035;BMP280;59899;43.412;23.216;2022-07-23T08:39:20;99922.53;;;37.55
72035;BMP280;59899;43.412;23.216;2022-07-23T08:41:46;99922.25;;;37.76
72035;BMP280;59899;43.412;23.216;2022-07-23T08:44:13;99915.69;;;37.83
72035;BMP280;59899;43.412;23.216;2022-07-23T08:46:40;99915.59;;;38.08
72035;BMP280;59899;43.412;23.216;2022-07-23T08:49:06;99919.81;;;38.38
72035;BMP280;59899;43.412;23.216;2022-07-23T08:51:32;99909.63;;;38.56
72035;BMP280;59899;43.412;23.216;2022-07-23T08:53:58;99913.00;;;38.68
72035;BMP280;59899;43.412;23.216;2022-07-23T08:56:23;99915.53;;;38.94
72035;BMP280;59899;43.412;23.216;2022-07-23T08:58:49;99910.53;;;39.06
72035;BMP280;59899;43.412;23.216;2022-07-23T09:01:14;99908.94;;;39.16
72035;BMP280;59899;43.412;23.216;2022-07-23T09:03:39;99911.28;;;39.37
72035;BMP280;59899;43.412;23.216;2022-07-23T09:06:05;99910.19;;;39.60
72035;BMP280;59899;43.412;23.216;2022-07-23T09:08:36;99912.00;;;39.87
72035;BMP280;59899;43.412;23.216;2022-07-23T09:11:04;99914.09;;;40.04
72035;BMP280;59899;43.412;23.216;2022-07-23T09:16:09;99914.75;;;40.38
72035;BMP280;59899;43.412;23.216;2022-07-23T09:18:46;99897.22;;;40.51
72035;BMP280;59899;43.412;23.216;2022-07-23T09:24:01;99893.16;;;40.91
72035;BMP280;59899;43.412;23.216;2022-07-23T09:31:31;99894.81;;;41.18
72035;BMP280;59899;43.412;23.216;2022-07-23T09:34:26;99901.22;;;41.42
72035;BMP280;59899;43.412;23.216;2022-07-23T09:37:12;99891.63;;;41.45
72035;BMP280;59899;43.412;23.216;2022-07-23T09:39:39;99889.84;;;41.53
72035;BMP280;59899;43.412;23.216;2022-07-23T09:44:44;99879.31;;;41.72
72035;BMP280;59899;43.412;23.216;2022-07-23T09:47:10;99882.75;;;41.92
72035;BMP280;59899;43.412;23.216;2022-07-23T09:49:35;99874.25;;;42.09
72035;BMP280;59899;43.412;23.216;2022-07-23T09:52:01;99872.63;;;42.02
72035;BMP280;59899;43.412;23.216;2022-07-23T09:56:54;99873.97;;;42.23
72035;BMP280;59899;43.412;23.216;2022-07-23T09:59:27;99870.97;;;42.39
72035;BMP280;59899;43.412;23.216;2022-07-23T10:01:57;99866.81;;;42.63
72035;BMP280;59899;43.412;23.216;2022-07-23T10:04:25;99866.97;;;42.69
72035;BMP280;59899;43.412;23.216;2022-07-23T10:06:53;99867.31;;;42.81
72035;BMP280;59899;43.412;23.216;2022-07-23T10:09:24;99869.00;;;42.92
72035;BMP280;59899;43.412;23.216;2022-07-23T10:11:50;99862.19;;;42.97
72035;BMP280;59899;43.412;23.216;2022-07-23T10:14:16;99863.88;;;43.08
72035;BMP280;59899;43.412;23.216;2022-07-23T10:16:41;99858.13;;;43.02
72035;BMP280;59899;43.412;23.216;2022-07-23T10:19:08;99857.09;;;43.16
72035;BMP280;59899;43.412;23.216;2022-07-23T10:21:45;99851.56;;;43.18
72035;BMP280;59899;43.412;23.216;2022-07-23T10:30:28;99846.63;;;43.16
72035;BMP280;59899;43.412;23.216;2022-07-23T10:38:30;99840.63;;;43.28
72035;BMP280;59899;43.412;23.216;2022-07-23T10:41:04;99832.75;;;43.48
72035;BMP280;59899;43.412;23.216;2022-07-23T10:43:30;99835.97;;;43.64
72035;BMP280;59899;43.412;23.216;2022-07-23T10:46:22;99828.59;;;43.78
72035;BMP280;59899;43.412;23.216;2022-07-23T10:49:24;99823.75;;;43.51
72035;BMP280;59899;43.412;23.216;2022-07-23T10:57:12;99823.19;;;43.86
72035;BMP280;59899;43.412;23.216;2022-07-23T11:02:44;99821.16;;;43.89
72035;BMP280;59899;43.412;23.216;2022-07-23T11:05:18;99816.59;;;44.02
72035;BMP280;59899;43.412;23.216;2022-07-23T11:26:49;99804.78;;;43.16
72035;BMP280;59899;43.412;23.216;2022-07-23T11:32:27;99791.03;;;42.45
72035;BMP280;59899;43.412;23.216;2022-07-23T11:34:52;99793.97;;;42.51
72035;BMP280;59899;43.412;23.216;2022-07-23T11:37:37;99790.69;;;42.59
72035;BMP280;59899;43.412;23.216;2022-07-23T11:40:11;99785.09;;;42.33
72035;BMP280;59899;43.412;23.216;2022-07-23T11:42:38;99782.78;;;42.49
72035;BMP280;59899;43.412;23.216;2022-07-23T11:45:05;99780.50;;;42.67
72035;BMP280;59899;43.412;23.216;2022-07-23T11:47:31;99783.91;;;42.64
72035;BMP280;59899;43.412;23.216;2022-07-23T11:50:01;99787.84;;;42.57
72035;BMP280;59899;43.412;23.216;2022-07-23T11:52:28;99775.59;;;42.42
72035;BMP280;59899;43.412;23.216;2022-07-23T11:55:03;99776.94;;;42.39
72035;BMP280;59899;43.412;23.216;2022-07-23T11:57:31;99775.38;;;42.34
72035;BMP280;59899;43.412;23.216;2022-07-23T12:00:01;99775.59;;;42.42
72035;BMP280;59899;43.412;23.216;2022-07-23T12:02:26;99773.81;;;42.53
72035;BMP280;59899;43.412;23.216;2022-07-23T12:04:53;99770.34;;;42.54
72035;BMP280;59899;43.412;23.216;2022-07-23T12:07:31;99771.53;;;42.71
72035;BMP280;59899;43.412;23.216;2022-07-23T12:10:10;99763.81;;;42.69
72035;BMP280;59899;43.412;23.216;2022-07-23T12:12:43;99770.47;;;42.58
72035;BMP280;59899;43.412;23.216;2022-07-23T12:15:14;99764.81;;;42.30
72035;BMP280;59899;43.412;23.216;2022-07-23T12:17:43;99755.75;;;42.30
72035;BMP280;59899;43.412;23.216;2022-07-23T12:20:11;99760.28;;;42.41
72035;BMP280;59899;43.412;23.216;2022-07-23T12:22:40;99759.81;;;42.51
72035;BMP280;59899;43.412;23.216;2022-07-23T12:25:14;99769.97;;;42.40
72035;BMP280;59899;43.412;23.216;2022-07-23T12:27:40;99758.31;;;42.46
72035;BMP280;59899;43.412;23.216;2022-07-23T12:30:23;99754.97;;;42.51
72035;BMP280;59899;43.412;23.216;2022-07-23T12:32:51;99746.66;;;42.53
72035;BMP280;59899;43.412;23.216;2022-07-23T12:35:17;99743.50;;;42.39
72035;BMP280;59899;43.412;23.216;2022-07-23T12:37:45;99741.66;;;42.24
72035;BMP280;59899;43.412;23.216;2022-07-23T12:40:27;99739.16;;;42.10
72035;BMP280;59899;43.412;23.216;2022-07-23T12:45:20;99744.88;;;41.91
72035;BMP280;59899;43.412;23.216;2022-07-23T12:48:04;99735.78;;;41.67
72035;BMP280;59899;43.412;23.216;2022-07-23T12:50:48;99738.06;;;41.50
72035;BMP280;59899;43.412;23.216;2022-07-23T12:53:32;99719.09;;;41.45
72035;BMP280;59899;43.412;23.216;2022-07-23T12:58:51;99727.31;;;41.41
72035;BMP280;59899;43.412;23.216;2022-07-23T13:01:58;99728.16;;;41.45
72035;BMP280;59899;43.412;23.216;2022-07-23T13:04:26;99725.81;;;41.16
72035;BMP280;59899;43.412;23.216;2022-07-23T13:06:54;99714.50;;;41.10
72035;BMP280;59899;43.412;23.216;2022-07-23T13:09:22;99723.09;;;41.18
72035;BMP280;59899;43.412;23.216;2022-07-23T13:11:49;99717.22;;;41.08
72035;BMP280;59899;43.412;23.216;2022-07-23T13:14:16;99717.03;;;41.02
72035;BMP280;59899;43.412;23.216;2022-07-23T13:16:44;99707.75;;;40.96
72035;BMP280;59899;43.412;23.216;2022-07-23T13:19:09;99706.81;;;40.89
72035;BMP280;59899;43.412;23.216;2022-07-23T13:21:35;99702.06;;;40.92
72035;BMP280;59899;43.412;23.216;2022-07-23T13:24:00;99701.25;;;40.89
72035;BMP280;59899;43.412;23.216;2022-07-23T13:26:26;99705.59;;;40.94
72035;BMP280;59899;43.412;23.216;2022-07-23T13:28:52;99696.72;;;40.98
72035;BMP280;59899;43.412;23.216;2022-07-23T13:31:18;99692.34;;;40.93
72035;BMP280;59899;43.412;23.216;2022-07-23T13:33:44;99683.44;;;40.96
72035;BMP280;59899;43.412;23.216;2022-07-23T13:36:09;99686.16;;;40.94
72035;BMP280;59899;43.412;23.216;2022-07-23T13:38:35;99683.53;;;40.98
72035;BMP280;59899;43.412;23.216;2022-07-23T13:41:00;99686.78;;;40.93
72035;BMP280;59899;43.412;23.216;2022-07-23T13:43:28;99688.09;;;40.90
72035;BMP280;59899;43.412;23.216;2022-07-23T13:45:54;99678.97;;;40.87
72035;BMP280;59899;43.412;23.216;2022-07-23T13:48:20;99675.41;;;40.84
72035;BMP280;59899;43.412;23.216;2022-07-23T13:50:47;99677.69;;;40.90
72035;BMP280;59899;43.412;23.216;2022-07-23T13:53:15;99676.69;;;40.81
72035;BMP280;59899;43.412;23.216;2022-07-23T13:55:42;99675.69;;;40.73
72035;BMP280;59899;43.412;23.216;2022-07-23T13:58:08;99679.75;;;40.70
72035;BMP280;59899;43.412;23.216;2022-07-23T14:00:36;99676.19;;;40.67
72035;BMP280;59899;43.412;23.216;2022-07-23T14:03:02;99671.47;;;40.72
72035;BMP280;59899;43.412;23.216;2022-07-23T14:05:28;99664.56;;;40.73
72035;BMP280;59899;43.412;23.216;2022-07-23T14:07:54;99670.50;;;40.83
72035;BMP280;59899;43.412;23.216;2022-07-23T14:10:21;99672.03;;;40.88
72035;BMP280;59899;43.412;23.216;2022-07-23T14:12:48;99671.97;;;40.86
72035;BMP280;59899;43.412;23.216;2022-07-23T14:15:14;99661.13;;;40.94
72035;BMP280;59899;43.412;23.216;2022-07-23T14:17:41;99670.75;;;40.91
72035;BMP280;59899;43.412;23.216;2022-07-23T14:20:08;99655.44;;;40.90
72035;BMP280;59899;43.412;23.216;2022-07-23T14:22:34;99658.63;;;41.02
72035;BMP280;59899;43.412;23.216;2022-07-23T14:24:59;99658.81;;;41.08
72035;BMP280;59899;43.412;23.216;2022-07-23T14:27:26;99658.03;;;41.06
72035;BMP280;59899;43.412;23.216;2022-07-23T14:29:52;99658.28;;;41.14
72035;BMP280;59899;43.412;23.216;2022-07-23T14:32:18;99639.66;;;41.18
72035;BMP280;59899;43.412;23.216;2022-07-23T14:34:44;99648.41;;;41.09
72035;BMP280;59899;43.412;23.216;2022-07-23T14:37:10;99648.78;;;40.99
72035;BMP280;59899;43.412;23.216;2022-07-23T14:39:36;99641.00;;;40.96
72035;BMP280;59899;43.412;23.216;2022-07-23T14:42:02;99643.78;;;40.96
72035;BMP280;59899;43.412;23.216;2022-07-23T14:44:27;99641.00;;;40.96
72035;BMP280;59899;43.412;23.216;2022-07-23T14:46:53;99650.91;;;41.01
72035;BMP280;59899;43.412;23.216;2022-07-23T14:49:18;99641.72;;;40.96
72035;BMP280;59899;43.412;23.216;2022-07-23T14:51:44;99641.38;;;40.86
72035;BMP280;59899;43.412;23.216;2022-07-23T14:54:10;99639.91;;;40.83
72035;BMP280;59899;43.412;23.216;2022-07-23T14:56:35;99633.56;;;40.80
72035;BMP280;59899;43.412;23.216;2022-07-23T14:59:03;99634.16;;;40.77